ENAL/AES METAR and TAF weather

Enter ICAO airport designator
Station Type Date Time Source
ENAL METAR 2024/06/14 03:20 UTC NOAA

ENAL 140320Z AUTO VRB03KT 9999 OVC020/// 10/09 Q1009


Station Type Date Time Source
ENAL Decoded METAR 2024/06/14 03:20 UTC NOAA

Alesund / Vigra, Norway (ENAL) 62-34N 006-07E 22M
Jun 13, 2024 - 11:20 PM EDT / 2024.06.14 0320 UTC
Wind: Variable at 3 MPH (3 KT):0
Visibility: greater than 7 mile(s):0
Sky conditions: overcast
Temperature: 50 F (10 C)
Dew Point: 48 F (9 C)
Relative Humidity: 93%
Pressure (altimeter): 29.80 in. Hg (1009 hPa)
ob: ENAL 140320Z AUTO VRB03KT 9999 OVC020/// 10/09 Q1009
cycle: 3

Station Type Date Time Source
ENAL TAF UTC NOAA

Error!

Example: see airport list